createdAt,value
2017-03-15T00:00:14.438Z,12.2
2017-03-15T00:01:16.296Z,12.1
2017-03-15T00:02:18.499Z,12.1
2017-03-15T00:03:20.368Z,12.1
2017-03-15T00:04:22.581Z,12.1
2017-03-15T00:05:24.433Z,12
2017-03-15T00:06:26.291Z,12
2017-03-15T00:07:28.167Z,12
2017-03-15T00:08:30.036Z,12
2017-03-15T00:09:32.239Z,12
2017-03-15T00:10:34.106Z,12
2017-03-15T00:11:35.986Z,12
2017-03-15T00:12:37.861Z,11.9
2017-03-15T00:13:40.393Z,11.9
2017-03-15T00:14:42.689Z,11.9
2017-03-15T00:15:44.885Z,11.9
2017-03-15T00:16:46.766Z,11.9
2017-03-15T00:17:48.958Z,11.8
2017-03-15T00:18:51.157Z,11.8
2017-03-15T00:19:53.692Z,11.8
2017-03-15T00:20:55.539Z,11.8
2017-03-15T00:21:57.739Z,11.8
2017-03-15T00:22:59.601Z,11.8
2017-03-15T00:24:01.803Z,11.8
2017-03-15T00:25:03.665Z,11.8
2017-03-15T00:26:05.528Z,11.7
2017-03-15T00:27:07.374Z,11.7
2017-03-15T00:28:09.236Z,11.7
2017-03-15T00:29:11.101Z,11.7
2017-03-15T00:30:13.300Z,11.7
2017-03-15T00:31:15.177Z,11.7
2017-03-15T00:32:17.381Z,11.7
2017-03-15T00:33:19.577Z,11.7
2017-03-15T00:34:21.464Z,11.7
2017-03-15T00:35:24.004Z,11.7
2017-03-15T00:36:25.858Z,11.6
2017-03-15T00:37:27.721Z,11.6
2017-03-15T00:38:29.579Z,11.6
2017-03-15T00:39:31.801Z,11.6
2017-03-15T00:40:35.015Z,11.6
2017-03-15T00:41:36.861Z,11.6
2017-03-15T00:42:38.720Z,11.6
2017-03-15T00:43:40.575Z,11.6
2017-03-15T00:44:42.459Z,11.6
2017-03-15T00:45:44.688Z,11.6
2017-03-15T00:46:47.600Z,11.6
2017-03-15T00:47:50.137Z,11.6
2017-03-15T00:48:52.008Z,11.6
2017-03-15T00:49:54.207Z,11.6
2017-03-15T00:50:56.760Z,11.6
2017-03-15T00:51:58.632Z,11.6
2017-03-15T00:53:00.496Z,11.6
2017-03-15T00:54:02.350Z,11.6
2017-03-15T00:55:04.225Z,11.6
2017-03-15T00:56:06.082Z,11.6
2017-03-15T00:57:07.939Z,11.5
2017-03-15T00:58:09.808Z,11.5
2017-03-15T00:59:12.013Z,11.5
2017-03-15T01:00:13.905Z,11.5
2017-03-15T01:01:15.775Z,11.5
2017-03-15T01:02:17.656Z,11.5
2017-03-15T01:03:19.540Z,11.4
2017-03-15T01:04:21.736Z,11.4
2017-03-15T01:05:23.937Z,11.4
2017-03-15T01:06:26.127Z,11.4
2017-03-15T01:07:28.010Z,11.4
2017-03-15T01:08:30.547Z,11.4
2017-03-15T01:09:32.395Z,11.4
2017-03-15T01:10:34.249Z,11.4
2017-03-15T01:11:36.455Z,11.4
2017-03-15T01:12:38.313Z,11.4
2017-03-15T01:13:40.867Z,11.4
2017-03-15T01:14:43.078Z,11.4
2017-03-15T01:15:44.938Z,11.4
2017-03-15T01:16:46.811Z,11.4
2017-03-15T01:17:48.665Z,11.4
2017-03-15T01:18:50.863Z,11.4
2017-03-15T01:19:53.430Z,11.4
2017-03-15T01:20:55.971Z,11.4
2017-03-15T01:21:58.531Z,11.5
2017-03-15T01:23:00.391Z,11.5
2017-03-15T01:24:02.232Z,11.4
2017-03-15T01:25:04.113Z,11.5
2017-03-15T01:26:05.981Z,11.4
2017-03-15T01:27:07.851Z,11.5
2017-03-15T01:28:10.055Z,11.5
2017-03-15T01:29:11.914Z,11.5
2017-03-15T01:30:14.121Z,11.5
2017-03-15T01:31:15.999Z,11.5
2017-03-15T01:32:17.871Z,11.5
2017-03-15T01:33:20.415Z,11.5
2017-03-15T01:34:22.950Z,11.4
2017-03-15T01:35:24.810Z,11.4
2017-03-15T01:36:27.362Z,11.4
2017-03-15T01:37:29.904Z,11.4
2017-03-15T01:38:31.769Z,11.4
2017-03-15T01:39:33.954Z,11.4
2017-03-15T01:40:35.816Z,11.4
2017-03-15T01:41:37.687Z,11.3
2017-03-15T01:42:40.569Z,11.3
2017-03-15T01:43:42.759Z,11.3
2017-03-15T01:44:44.962Z,11.3
2017-03-15T01:45:46.815Z,11.3
2017-03-15T01:46:48.681Z,11.3
2017-03-15T01:47:50.886Z,11.3
2017-03-15T01:48:53.441Z,11.3
2017-03-15T01:49:55.297Z,11.2
2017-03-15T01:50:57.512Z,11.2
2017-03-15T01:51:59.387Z,11.2
2017-03-15T01:53:01.588Z,11.2
2017-03-15T01:54:03.462Z,11.2
2017-03-15T01:55:05.326Z,11.2
2017-03-15T01:56:07.184Z,11.2
2017-03-15T01:57:09.045Z,11.2
2017-03-15T01:58:10.924Z,11.2
2017-03-15T01:59:12.769Z,11.2
2017-03-15T02:00:14.650Z,11.2
2017-03-15T02:01:16.496Z,11.2
2017-03-15T02:02:18.379Z,11.2
2017-03-15T02:03:20.239Z,11.2
2017-03-15T02:04:22.106Z,11.2
2017-03-15T02:05:24.650Z,11.1
2017-03-15T02:06:26.856Z,11.2
2017-03-15T02:07:29.052Z,11.1
2017-03-15T02:08:31.251Z,11.2
2017-03-15T02:09:33.776Z,11.1
2017-03-15T02:10:35.641Z,11.1
2017-03-15T02:11:37.501Z,11.1
2017-03-15T02:12:39.372Z,11.1
2017-03-15T02:13:41.899Z,11.1
2017-03-15T02:14:44.096Z,11.1
2017-03-15T02:15:46.316Z,11.1
2017-03-15T02:16:48.531Z,11.1
2017-03-15T02:17:50.385Z,11.1
2017-03-15T02:18:52.242Z,11.1
2017-03-15T02:19:54.120Z,11
2017-03-15T02:20:55.983Z,11.1
2017-03-15T02:21:57.860Z,11
2017-03-15T02:23:00.057Z,11
2017-03-15T02:24:01.915Z,11
2017-03-15T02:25:03.787Z,11
2017-03-15T02:26:06.006Z,11
2017-03-15T02:27:08.207Z,10.9
2017-03-15T02:28:10.061Z,10.9
2017-03-15T02:29:11.938Z,10.9
2017-03-15T02:30:14.477Z,10.9
2017-03-15T02:31:16.331Z,10.9
2017-03-15T02:32:18.190Z,10.9
2017-03-15T02:33:20.049Z,10.9
2017-03-15T02:34:21.913Z,10.9
2017-03-15T02:35:23.763Z,10.8
2017-03-15T02:36:25.620Z,10.8
2017-03-15T02:37:27.480Z,10.8
2017-03-15T02:38:29.354Z,10.8
2017-03-15T02:39:31.200Z,10.8
2017-03-15T02:40:33.060Z,10.8
2017-03-15T02:41:35.599Z,10.8
2017-03-15T02:42:37.451Z,10.8
2017-03-15T02:43:39.317Z,10.8
2017-03-15T02:44:41.175Z,10.8
2017-03-15T02:45:43.052Z,10.7
2017-03-15T02:46:45.284Z,10.7
2017-03-15T02:47:47.148Z,10.7
2017-03-15T02:48:49.355Z,10.7
2017-03-15T02:49:51.207Z,10.7
2017-03-15T02:50:53.086Z,10.7
2017-03-15T02:51:54.934Z,10.7
2017-03-15T02:52:56.802Z,10.7
2017-03-15T02:53:58.656Z,10.7
2017-03-15T02:55:00.518Z,10.7
2017-03-15T02:56:02.376Z,10.7
2017-03-15T02:57:04.233Z,10.7
2017-03-15T02:58:06.448Z,10.7
2017-03-15T02:59:08.309Z,10.7
2017-03-15T03:00:10.522Z,10.7
2017-03-15T03:01:12.376Z,10.7
2017-03-15T03:02:14.252Z,10.7
2017-03-15T03:03:16.104Z,10.7
2017-03-15T03:04:17.961Z,10.7
2017-03-15T03:05:19.806Z,10.7
2017-03-15T03:06:21.670Z,10.7
2017-03-15T03:07:23.876Z,10.7
2017-03-15T03:08:26.090Z,10.8
2017-03-15T03:09:27.961Z,10.8
2017-03-15T03:10:30.538Z,10.8
2017-03-15T03:11:32.744Z,10.8
2017-03-15T03:12:34.607Z,10.8
2017-03-15T03:13:36.468Z,10.8
2017-03-15T03:14:38.326Z,10.9
2017-03-15T03:15:40.530Z,10.9
2017-03-15T03:16:42.409Z,10.9
2017-03-15T03:17:44.966Z,10.9
2017-03-15T03:18:46.853Z,11
2017-03-15T03:19:48.731Z,11
2017-03-15T03:20:50.952Z,11
2017-03-15T03:21:53.503Z,11
2017-03-15T03:22:55.373Z,11
2017-03-15T03:23:57.585Z,11
2017-03-15T03:24:59.775Z,11
2017-03-15T03:26:02.306Z,11
2017-03-15T03:27:04.186Z,11
2017-03-15T03:28:06.396Z,11.1
2017-03-15T03:29:08.954Z,11
2017-03-15T03:30:11.164Z,11
2017-03-15T03:31:13.063Z,11
2017-03-15T03:32:15.277Z,11
2017-03-15T03:33:17.136Z,11
2017-03-15T03:34:19.323Z,11
2017-03-15T03:35:21.187Z,11
2017-03-15T03:36:23.378Z,10.9
2017-03-15T03:37:25.241Z,10.9
2017-03-15T03:38:27.442Z,10.9
2017-03-15T03:39:29.639Z,10.9
2017-03-15T03:40:32.166Z,10.9
2017-03-15T03:41:34.698Z,10.8
2017-03-15T03:42:36.891Z,10.9
2017-03-15T03:43:39.775Z,10.8
2017-03-15T03:44:41.975Z,10.8
2017-03-15T03:45:44.173Z,10.8
2017-03-15T03:46:46.359Z,10.8
2017-03-15T03:47:48.556Z,10.8
2017-03-15T03:48:50.424Z,10.7
2017-03-15T03:49:52.284Z,10.7
2017-03-15T03:50:54.155Z,10.7
2017-03-15T03:51:56.364Z,10.7
2017-03-15T03:52:58.232Z,10.7
2017-03-15T03:54:00.092Z,10.6
2017-03-15T03:55:17.321Z,10.6
2017-03-15T03:56:19.169Z,10.6
2017-03-15T03:57:21.049Z,10.6
2017-03-15T03:58:22.926Z,10.6
2017-03-15T03:59:24.804Z,10.5
2017-03-15T04:00:27.000Z,10.6
2017-03-15T04:01:29.197Z,10.5
2017-03-15T04:02:31.744Z,10.5
2017-03-15T04:03:33.618Z,10.5
2017-03-15T04:04:35.473Z,10.5
2017-03-15T04:05:37.333Z,10.5
2017-03-15T04:06:39.874Z,10.5
2017-03-15T04:07:41.746Z,10.4
2017-03-15T04:08:43.639Z,10.4
2017-03-15T04:09:45.845Z,10.4
2017-03-15T04:10:48.056Z,10.4
2017-03-15T04:11:50.248Z,10.4
2017-03-15T04:12:52.446Z,10.4
2017-03-15T04:13:54.298Z,10.4
2017-03-15T04:14:56.491Z,10.4
2017-03-15T04:15:58.356Z,10.4
2017-03-15T04:17:00.211Z,10.3
2017-03-15T04:18:02.067Z,10.3
2017-03-15T04:19:03.918Z,10.3
2017-03-15T04:20:06.117Z,10.3
2017-03-15T04:21:07.978Z,10.3
2017-03-15T04:22:09.824Z,10.3
2017-03-15T04:23:11.693Z,10.3
2017-03-15T04:24:13.545Z,10.3
2017-03-15T04:25:15.745Z,10.3
2017-03-15T04:26:17.953Z,10.3
2017-03-15T04:27:20.160Z,10.2
2017-03-15T04:28:22.025Z,10.2
2017-03-15T04:29:23.892Z,10.2
2017-03-15T04:30:26.103Z,10.2
2017-03-15T04:31:28.301Z,10.2
2017-03-15T04:32:31.192Z,10.2
2017-03-15T04:33:33.375Z,10.2
2017-03-15T04:34:35.928Z,10.2
2017-03-15T04:35:38.129Z,10.2
2017-03-15T04:36:40.155Z,10.2
2017-03-15T04:37:41.998Z,10.2
2017-03-15T04:38:43.853Z,10.1
2017-03-15T04:39:46.061Z,10.1
2017-03-15T04:40:48.624Z,10.1
2017-03-15T04:41:50.840Z,10.1
2017-03-15T04:42:52.727Z,10.1
2017-03-15T04:43:54.926Z,10.1
2017-03-15T04:44:56.788Z,10.1
2017-03-15T04:45:58.652Z,10.1
2017-03-15T04:47:00.853Z,10.1
2017-03-15T04:48:03.402Z,10.1
2017-03-15T04:49:05.595Z,10.1
2017-03-15T04:50:07.455Z,10.1
2017-03-15T04:51:09.327Z,10.1
2017-03-15T04:52:11.217Z,10
2017-03-15T04:53:13.072Z,10
2017-03-15T04:54:15.278Z,10
2017-03-15T04:55:17.136Z,10
2017-03-15T04:56:19.693Z,10
2017-03-15T04:57:21.558Z,10
2017-03-15T04:58:23.412Z,10
2017-03-15T04:59:25.264Z,10
2017-03-15T05:00:27.133Z,9.9
2017-03-15T05:01:29.020Z,9.9
2017-03-15T05:02:31.219Z,9.9
2017-03-15T05:03:33.087Z,9.9
2017-03-15T05:04:35.275Z,9.9
2017-03-15T05:05:37.137Z,9.9
2017-03-15T05:06:39.696Z,9.9
2017-03-15T05:07:41.902Z,9.9
2017-03-15T05:08:44.095Z,9.9
2017-03-15T05:09:46.303Z,9.9
2017-03-15T05:10:48.487Z,9.9
2017-03-15T05:11:50.357Z,9.9
2017-03-15T05:12:52.217Z,9.8
2017-03-15T05:13:54.407Z,9.8
2017-03-15T05:14:56.591Z,9.8
2017-03-15T05:15:58.447Z,9.8
2017-03-15T05:17:00.322Z,9.8
2017-03-15T05:18:02.521Z,9.8
2017-03-15T05:19:04.388Z,9.8
2017-03-15T05:20:06.238Z,9.8
2017-03-15T05:21:08.441Z,9.8
2017-03-15T05:22:10.295Z,9.8
2017-03-15T05:23:12.493Z,9.8
2017-03-15T05:24:14.358Z,9.7
2017-03-15T05:25:16.563Z,9.8
2017-03-15T05:26:18.438Z,9.7
2017-03-15T05:27:20.308Z,9.7
2017-03-15T05:28:22.498Z,9.7
2017-03-15T05:29:25.409Z,9.7
2017-03-15T05:30:27.276Z,9.7
2017-03-15T05:31:29.177Z,9.7
2017-03-15T05:32:31.366Z,9.7
2017-03-15T05:33:33.562Z,9.7
2017-03-15T05:34:35.759Z,9.7
2017-03-15T05:35:37.612Z,9.7
2017-03-15T05:36:39.467Z,9.6
2017-03-15T05:37:41.681Z,9.7
2017-03-15T05:38:44.569Z,9.6
2017-03-15T05:39:46.786Z,9.6
2017-03-15T05:40:49.336Z,9.6
2017-03-15T05:41:51.530Z,9.6
2017-03-15T05:42:53.721Z,9.6
2017-03-15T05:43:55.590Z,9.6
2017-03-15T05:44:57.452Z,9.6
2017-03-15T05:45:59.652Z,9.6
2017-03-15T05:47:01.512Z,9.6
2017-03-15T05:48:03.377Z,9.6
2017-03-15T05:49:05.906Z,9.6
2017-03-15T05:50:07.839Z,9.5
2017-03-15T05:51:09.701Z,9.6
2017-03-15T05:52:11.909Z,9.6
2017-03-15T05:53:14.123Z,9.6
2017-03-15T05:54:16.023Z,9.6
2017-03-15T05:55:17.881Z,9.5
2017-03-15T05:56:19.779Z,9.5
2017-03-15T05:57:22.075Z,9.5
2017-03-15T05:58:23.996Z,9.5
2017-03-15T05:59:26.205Z,9.5
2017-03-15T06:00:28.096Z,9.5
2017-03-15T06:01:30.043Z,9.5
2017-03-15T06:02:31.921Z,9.5
2017-03-15T06:03:34.451Z,9.5
2017-03-15T06:04:36.668Z,9.5
2017-03-15T06:05:38.893Z,9.5
2017-03-15T06:06:41.114Z,9.5
2017-03-15T06:07:43.050Z,9.5
2017-03-15T06:08:45.590Z,9.5
2017-03-15T06:09:47.546Z,9.5
2017-03-15T06:10:49.768Z,9.5
2017-03-15T06:11:51.746Z,9.5
2017-03-15T06:12:54.293Z,9.5
2017-03-15T06:13:56.543Z,9.5
2017-03-15T06:14:58.762Z,9.5
2017-03-15T06:16:00.622Z,9.5
2017-03-15T06:17:02.835Z,9.5
2017-03-15T06:18:04.689Z,9.6
2017-03-15T06:19:06.566Z,9.6
2017-03-15T06:20:09.151Z,9.6
2017-03-15T06:21:11.091Z,9.6
2017-03-15T06:22:13.376Z,9.6
2017-03-15T06:23:15.310Z,9.6
2017-03-15T06:24:17.180Z,9.6
2017-03-15T06:25:19.097Z,9.6
2017-03-15T06:26:21.672Z,9.6
2017-03-15T06:27:23.559Z,9.6
2017-03-15T06:28:25.845Z,9.6
2017-03-15T06:29:28.428Z,9.6
2017-03-15T06:30:30.354Z,9.6
2017-03-15T06:31:32.290Z,9.7
2017-03-15T06:32:34.237Z,9.7
2017-03-15T06:33:36.775Z,9.7
2017-03-15T06:34:38.652Z,9.7
2017-03-15T06:35:40.860Z,9.7
2017-03-15T06:36:43.799Z,9.8
2017-03-15T06:37:45.995Z,9.8
2017-03-15T06:38:48.902Z,9.8
2017-03-15T06:39:51.469Z,9.8
2017-03-15T06:40:54.077Z,9.8
2017-03-15T06:41:56.650Z,9.9
2017-03-15T06:42:58.519Z,9.9
2017-03-15T06:44:00.390Z,9.9
2017-03-15T06:45:02.588Z,9.9
2017-03-15T06:46:04.481Z,9.9
2017-03-15T06:47:06.709Z,9.9
2017-03-15T06:48:08.575Z,10
2017-03-15T06:49:10.822Z,10
2017-03-15T06:50:12.713Z,10.1
2017-03-15T06:51:14.584Z,10
2017-03-15T06:52:16.514Z,10.1
2017-03-15T06:53:18.789Z,10.1
2017-03-15T06:54:20.648Z,10.1
2017-03-15T06:55:22.510Z,10.1
2017-03-15T06:56:25.058Z,10.2
2017-03-15T06:57:27.280Z,10.2
2017-03-15T06:58:29.879Z,10.2
2017-03-15T06:59:31.779Z,10.2
2017-03-15T07:00:33.650Z,10.2
2017-03-15T07:01:36.336Z,10.3
2017-03-15T07:02:38.245Z,10.3
2017-03-15T07:03:40.222Z,10.3
2017-03-15T07:04:42.088Z,10.3
2017-03-15T07:05:44.312Z,10.3
2017-03-15T07:06:46.848Z,10.4
2017-03-15T07:07:49.051Z,10.4
2017-03-15T07:08:50.906Z,10.4
2017-03-15T07:09:52.795Z,10.4
2017-03-15T07:10:55.053Z,10.4
2017-03-15T07:11:57.253Z,10.5
2017-03-15T07:12:59.682Z,10.5
2017-03-15T07:14:01.556Z,10.5
2017-03-15T07:15:03.776Z,10.5
2017-03-15T07:16:06.000Z,10.5
2017-03-15T07:17:07.873Z,10.6
2017-03-15T07:18:10.440Z,10.6
2017-03-15T07:19:12.975Z,10.6
2017-03-15T07:20:15.701Z,10.6
2017-03-15T07:21:17.570Z,10.6
2017-03-15T07:22:19.448Z,10.7
2017-03-15T07:23:21.874Z,10.7
2017-03-15T07:24:23.739Z,10.7
2017-03-15T07:25:25.946Z,10.7
2017-03-15T07:26:28.046Z,10.8
2017-03-15T07:27:29.914Z,10.8
2017-03-15T07:28:31.777Z,10.8
2017-03-15T07:29:33.921Z,10.9
2017-03-15T07:30:35.808Z,10.9
2017-03-15T07:31:37.672Z,10.9
2017-03-15T07:32:39.744Z,10.9
2017-03-15T07:33:41.606Z,11
2017-03-15T07:34:43.521Z,11
2017-03-15T07:35:45.384Z,11
2017-03-15T07:36:47.788Z,11.1
2017-03-15T07:37:49.983Z,11.1
2017-03-15T07:38:52.121Z,11.1
2017-03-15T07:39:53.977Z,11.2
2017-03-15T07:40:56.197Z,11.2
2017-03-15T07:41:58.703Z,11.3
2017-03-15T07:43:00.569Z,11.3
2017-03-15T07:44:02.437Z,11.4
2017-03-15T07:45:04.366Z,11.4
2017-03-15T07:46:06.570Z,11.5
2017-03-15T07:47:08.425Z,11.5
2017-03-15T07:48:10.887Z,11.5
2017-03-15T07:49:12.771Z,11.6
2017-03-15T07:50:14.969Z,11.6
2017-03-15T07:51:16.833Z,11.6
2017-03-15T07:52:19.377Z,11.7
2017-03-15T07:53:22.179Z,11.7
2017-03-15T07:54:24.057Z,11.8
2017-03-15T07:55:26.290Z,11.8
2017-03-15T07:56:28.429Z,11.8
2017-03-15T07:57:30.691Z,11.8
2017-03-15T07:58:32.580Z,11.9
2017-03-15T07:59:34.710Z,11.9
2017-03-15T08:00:36.899Z,11.9
2017-03-15T08:01:38.788Z,11.9
2017-03-15T08:02:40.791Z,12
2017-03-15T08:03:43.011Z,12.1
2017-03-15T08:04:45.213Z,12.1
2017-03-15T08:05:47.079Z,12.2
2017-03-15T08:06:48.934Z,12.3
2017-03-15T08:07:50.818Z,12.4
2017-03-15T08:08:52.846Z,12.5
2017-03-15T08:09:54.725Z,12.6
2017-03-15T08:10:56.589Z,12.7
2017-03-15T08:11:59.153Z,12.8
2017-03-15T08:13:01.380Z,12.9
2017-03-15T08:14:03.224Z,13
2017-03-15T08:15:05.110Z,13.1
2017-03-15T08:16:06.973Z,13.3
2017-03-15T08:17:08.858Z,13.4
2017-03-15T08:18:11.211Z,13.5
2017-03-15T08:19:13.085Z,13.6
2017-03-15T08:20:14.945Z,13.8
2017-03-15T08:21:17.252Z,14
2017-03-15T08:22:19.470Z,14.2
2017-03-15T08:23:21.352Z,14.3
2017-03-15T08:24:23.553Z,14.4
2017-03-15T08:25:25.787Z,14.6
2017-03-15T08:26:28.248Z,14.7
2017-03-15T08:27:30.161Z,14.9
2017-03-15T08:28:32.026Z,15
2017-03-15T08:29:33.923Z,15.3
2017-03-15T08:30:35.954Z,15.5
2017-03-15T08:31:37.821Z,15.6
2017-03-15T08:32:39.699Z,15.8
2017-03-15T08:33:41.598Z,15.9
2017-03-15T08:34:43.472Z,16
2017-03-15T08:35:45.444Z,16.2
2017-03-15T08:36:47.649Z,16.3
2017-03-15T08:37:49.518Z,16.5
2017-03-15T08:38:51.406Z,16.7
2017-03-15T08:39:53.270Z,16.8
2017-03-15T08:40:55.135Z,17
2017-03-15T08:41:57.030Z,17.1
2017-03-15T08:42:58.893Z,17.2
2017-03-15T08:44:00.759Z,17.2
2017-03-15T08:45:02.619Z,17.2
2017-03-15T08:46:04.826Z,17.2
2017-03-15T08:47:06.705Z,17.3
2017-03-15T08:48:08.917Z,17.4
2017-03-15T08:49:10.790Z,17.5
2017-03-15T08:50:12.644Z,17.6
2017-03-15T08:51:14.508Z,17.7
2017-03-15T08:52:16.368Z,17.8
2017-03-15T08:53:18.585Z,18
2017-03-15T08:54:20.471Z,18.1
2017-03-15T08:55:22.336Z,18.2
2017-03-15T08:56:24.213Z,18.2
2017-03-15T08:57:26.087Z,18.2
2017-03-15T08:58:27.980Z,18.2
2017-03-15T08:59:29.838Z,18.2
2017-03-15T09:00:31.703Z,18.3
2017-03-15T09:01:33.902Z,18.4
2017-03-15T09:02:35.766Z,18.5
2017-03-15T09:03:37.639Z,18.6
2017-03-15T09:04:39.510Z,18.8
2017-03-15T09:05:41.704Z,18.9
2017-03-15T09:06:43.579Z,19
2017-03-15T09:07:45.441Z,19.2
2017-03-15T09:08:47.293Z,19.3
2017-03-15T09:09:49.156Z,19.3
2017-03-15T09:10:51.015Z,19.4
2017-03-15T09:11:52.889Z,19.5
2017-03-15T09:12:54.792Z,19.5
2017-03-15T09:13:57.351Z,19.5
2017-03-15T09:14:59.556Z,19.5
2017-03-15T09:16:01.419Z,19.4
2017-03-15T09:17:03.306Z,19.4
2017-03-15T09:18:05.159Z,19.3
2017-03-15T09:19:07.373Z,19.3
2017-03-15T09:20:09.590Z,19.3
2017-03-15T09:21:11.474Z,19.3
2017-03-15T09:22:13.360Z,19.3
2017-03-15T09:23:15.558Z,19.3
2017-03-15T09:24:17.769Z,19.3
2017-03-15T09:25:19.657Z,19.4
2017-03-15T09:26:21.872Z,19.5
2017-03-15T09:27:24.082Z,19.6
2017-03-15T09:28:25.947Z,19.7
2017-03-15T09:29:27.826Z,19.8
2017-03-15T09:30:30.383Z,20
2017-03-15T09:31:32.248Z,20.1
2017-03-15T09:32:34.137Z,20.3
2017-03-15T09:33:36.352Z,20.3
2017-03-15T09:34:38.225Z,20.4
2017-03-15T09:35:40.104Z,20.4
2017-03-15T09:36:41.967Z,20.4
2017-03-15T09:37:43.846Z,20.4
2017-03-15T09:38:45.719Z,20.3
2017-03-15T09:39:47.597Z,20.3
2017-03-15T09:40:49.828Z,20.2
2017-03-15T09:41:52.027Z,20.2
2017-03-15T09:42:54.232Z,20.2
2017-03-15T09:43:56.107Z,20.3
2017-03-15T09:44:57.971Z,20.3
2017-03-15T09:45:59.843Z,20.4
2017-03-15T09:47:01.713Z,20.5
2017-03-15T09:48:03.948Z,20.5
2017-03-15T09:49:05.822Z,20.5
2017-03-15T09:50:07.687Z,20.5
2017-03-15T09:51:09.557Z,20.5
2017-03-15T09:52:11.420Z,20.5
2017-03-15T09:53:13.338Z,20.6
2017-03-15T09:54:15.197Z,20.7
2017-03-15T09:55:17.080Z,20.8
2017-03-15T09:56:18.947Z,20.9
2017-03-15T09:57:20.821Z,21
2017-03-15T09:58:22.691Z,21.1
2017-03-15T09:59:24.898Z,21.2
2017-03-15T10:00:26.782Z,21.2
2017-03-15T10:01:28.649Z,21.3
2017-03-15T10:02:30.519Z,21.3
2017-03-15T10:03:32.741Z,21.3
2017-03-15T10:04:34.600Z,21.3
2017-03-15T10:05:36.501Z,21.1
2017-03-15T10:06:38.361Z,21.1
2017-03-15T10:07:40.228Z,20.9
2017-03-15T10:08:42.092Z,20.9
2017-03-15T10:09:44.311Z,20.9
2017-03-15T10:10:46.193Z,20.9
2017-03-15T10:11:48.075Z,20.8
2017-03-15T10:12:50.279Z,20.8
2017-03-15T10:13:52.171Z,20.9
2017-03-15T10:14:54.374Z,20.9
2017-03-15T10:15:56.249Z,21.1
2017-03-15T10:16:58.106Z,21.2
2017-03-15T10:17:59.970Z,21.2
2017-03-15T10:19:01.836Z,21.4
2017-03-15T10:20:03.707Z,21.5
2017-03-15T10:21:05.580Z,21.5
2017-03-15T10:22:07.451Z,21.5
2017-03-15T10:23:09.341Z,21.6
2017-03-15T10:24:11.211Z,21.7
2017-03-15T10:25:13.085Z,21.8
2017-03-15T10:26:14.947Z,21.8
2017-03-15T10:27:16.822Z,21.8
2017-03-15T10:28:18.683Z,21.8
2017-03-15T10:29:20.543Z,21.7
2017-03-15T10:30:22.416Z,21.7
2017-03-15T10:31:24.279Z,21.7
2017-03-15T10:32:26.138Z,21.7
2017-03-15T10:33:27.998Z,21.8
2017-03-15T10:34:29.884Z,21.9
2017-03-15T10:35:31.741Z,22
2017-03-15T10:36:33.613Z,22
2017-03-15T10:37:35.480Z,22.1
2017-03-15T10:38:37.360Z,22.2
2017-03-15T10:39:39.235Z,22.3
2017-03-15T10:40:41.101Z,22.5
2017-03-15T10:41:42.964Z,22.5
2017-03-15T10:42:45.172Z,22.5
2017-03-15T10:43:47.036Z,22.4
2017-03-15T10:44:49.263Z,22.2
2017-03-15T10:45:51.126Z,22.1
2017-03-15T10:46:53.342Z,22
2017-03-15T10:47:55.201Z,21.9
2017-03-15T10:48:57.073Z,21.8
2017-03-15T10:49:58.950Z,21.9
2017-03-15T10:51:00.810Z,21.9
2017-03-15T10:52:02.680Z,22
2017-03-15T10:53:04.909Z,22
2017-03-15T10:54:06.762Z,21.9
2017-03-15T10:55:08.627Z,21.9
2017-03-15T10:56:10.489Z,21.8
2017-03-15T10:57:12.714Z,21.8
2017-03-15T10:58:14.606Z,21.8
2017-03-15T10:59:16.477Z,21.8
2017-03-15T11:00:18.340Z,21.9
2017-03-15T11:01:20.204Z,22
2017-03-15T11:02:22.079Z,22.1
2017-03-15T11:03:23.947Z,22.2
2017-03-15T11:04:25.804Z,22.4
2017-03-15T11:05:28.003Z,22.5
2017-03-15T11:06:29.876Z,22.6
2017-03-15T11:07:31.759Z,22.7
2017-03-15T11:08:33.639Z,22.6
2017-03-15T11:09:35.517Z,22.6
2017-03-15T11:10:37.378Z,22.6
2017-03-15T11:11:39.240Z,22.7
2017-03-15T11:12:41.113Z,22.6
2017-03-15T11:13:42.983Z,22.5
2017-03-15T11:14:44.854Z,22.4
2017-03-15T11:15:46.736Z,22.4
2017-03-15T11:16:48.961Z,22.3
2017-03-15T11:17:50.849Z,22.3
2017-03-15T11:18:52.716Z,22.3
2017-03-15T11:19:54.583Z,22.4
2017-03-15T11:20:56.448Z,22.4
2017-03-15T11:21:58.329Z,22.5
2017-03-15T11:23:00.196Z,22.4
2017-03-15T11:24:02.051Z,22.3
2017-03-15T11:25:03.914Z,22.2
2017-03-15T11:26:05.793Z,22.1
2017-03-15T11:27:07.987Z,22.1
2017-03-15T11:28:09.856Z,22.1
2017-03-15T11:29:11.727Z,22
2017-03-15T11:30:13.929Z,22
2017-03-15T11:31:15.793Z,22
2017-03-15T11:32:17.994Z,22
2017-03-15T11:33:20.202Z,22.1
2017-03-15T11:34:22.406Z,22.1
2017-03-15T11:35:24.284Z,22.1
2017-03-15T11:36:26.151Z,22.1
2017-03-15T11:37:28.012Z,22.2
2017-03-15T11:38:29.893Z,22.3
2017-03-15T11:39:31.759Z,22.3
2017-03-15T11:40:33.927Z,22.3
2017-03-15T11:41:35.795Z,22.3
2017-03-15T11:42:37.680Z,22.2
2017-03-15T11:43:39.552Z,22.2
2017-03-15T11:44:41.407Z,22.1
2017-03-15T11:45:43.272Z,22.2
2017-03-15T11:46:45.127Z,22.2
2017-03-15T11:47:46.993Z,22.1
2017-03-15T11:48:48.876Z,22.1
2017-03-15T11:49:50.735Z,22.1
2017-03-15T11:50:52.601Z,22.2
2017-03-15T11:51:54.461Z,22.1
2017-03-15T11:52:56.325Z,22.1
2017-03-15T11:53:58.190Z,22.1
2017-03-15T11:55:00.053Z,22.1
2017-03-15T11:56:01.925Z,22.1
2017-03-15T11:57:03.773Z,22.2
2017-03-15T11:58:05.640Z,22.2
2017-03-15T11:59:07.504Z,22.3
2017-03-15T12:00:09.372Z,22.5
2017-03-15T12:01:11.228Z,22.5
2017-03-15T12:02:13.095Z,22.5
2017-03-15T12:03:14.952Z,22.5
2017-03-15T12:04:17.161Z,22.5
2017-03-15T12:05:19.025Z,22.4
2017-03-15T12:06:20.898Z,22.4
2017-03-15T12:07:22.763Z,22.4
2017-03-15T12:08:24.969Z,22.4
2017-03-15T12:09:27.163Z,22.5
2017-03-15T12:10:29.025Z,22.5
2017-03-15T12:11:30.889Z,22.5
2017-03-15T12:12:32.758Z,22.5
2017-03-15T12:13:34.614Z,22.4
2017-03-15T12:14:36.484Z,22.3
2017-03-15T12:15:38.679Z,22.4
2017-03-15T12:16:40.889Z,22.4
2017-03-15T12:17:42.751Z,22.5
2017-03-15T12:18:44.619Z,22.7
2017-03-15T12:19:46.477Z,22.7
2017-03-15T12:20:48.347Z,22.7
2017-03-15T12:21:50.209Z,22.6
2017-03-15T12:22:52.072Z,22.5
2017-03-15T12:23:54.269Z,22.4
2017-03-15T12:24:56.482Z,22.3
2017-03-15T12:25:58.337Z,22.3
2017-03-15T12:27:00.543Z,22.3
2017-03-15T12:28:02.420Z,22.2
2017-03-15T12:29:04.288Z,22.2
2017-03-15T12:30:06.158Z,22.2
2017-03-15T12:31:08.027Z,22.2
2017-03-15T12:32:09.894Z,22.1
2017-03-15T12:33:11.753Z,22.1
2017-03-15T12:34:13.622Z,22.1
2017-03-15T12:35:15.492Z,22.1
2017-03-15T12:36:17.355Z,22.1
2017-03-15T12:37:19.251Z,22.1
2017-03-15T12:38:21.121Z,22.1
2017-03-15T12:39:22.995Z,22.1
2017-03-15T12:40:24.858Z,22.3
2017-03-15T12:41:26.730Z,22.4
2017-03-15T12:42:28.589Z,22.4
2017-03-15T12:43:30.458Z,22.4
2017-03-15T12:44:32.325Z,22.4
2017-03-15T12:45:34.193Z,22.3
2017-03-15T12:46:36.049Z,22.3
2017-03-15T12:47:37.916Z,22.2
2017-03-15T12:48:39.798Z,22.2
2017-03-15T12:49:41.693Z,22.1
2017-03-15T12:50:43.561Z,22
2017-03-15T12:51:45.440Z,21.9
2017-03-15T12:52:47.309Z,21.9
2017-03-15T12:53:49.188Z,21.8
2017-03-15T12:54:51.397Z,21.8
2017-03-15T12:55:53.278Z,21.7
2017-03-15T12:56:55.138Z,21.6
2017-03-15T12:57:57.365Z,21.6
2017-03-15T12:58:59.227Z,21.5
2017-03-15T13:00:01.425Z,21.5
2017-03-15T13:01:03.281Z,21.5
2017-03-15T13:02:05.159Z,21.5
2017-03-15T13:03:07.020Z,21.5
2017-03-15T13:04:08.887Z,21.5
2017-03-15T13:05:10.743Z,21.5
2017-03-15T13:06:12.624Z,21.5
2017-03-15T13:07:14.491Z,21.4
2017-03-15T13:08:16.706Z,21.5
2017-03-15T13:09:18.576Z,21.5
2017-03-15T13:10:20.448Z,21.5
2017-03-15T13:11:22.328Z,21.6
2017-03-15T13:12:24.195Z,21.6
2017-03-15T13:13:26.105Z,21.6
2017-03-15T13:14:27.965Z,21.6
2017-03-15T13:15:29.827Z,21.6
2017-03-15T13:16:31.701Z,21.7
2017-03-15T13:17:33.570Z,21.7
2017-03-15T13:18:35.444Z,21.6
2017-03-15T13:19:37.305Z,21.5
2017-03-15T13:20:39.519Z,21.5
2017-03-15T13:21:41.384Z,21.5
2017-03-15T13:22:43.245Z,21.5
2017-03-15T13:23:45.116Z,21.3
2017-03-15T13:24:46.977Z,21.2
2017-03-15T13:25:48.842Z,21.1
2017-03-15T13:26:50.716Z,21
2017-03-15T13:27:52.583Z,21
2017-03-15T13:28:54.449Z,21.1
2017-03-15T13:29:56.317Z,21.1
2017-03-15T13:30:58.221Z,21.1
2017-03-15T13:32:00.086Z,21.1
2017-03-15T13:33:01.950Z,21.1
2017-03-15T13:34:03.820Z,21.1
2017-03-15T13:35:05.686Z,21.2
2017-03-15T13:36:07.554Z,21.2
2017-03-15T13:37:09.424Z,21.2
2017-03-15T13:38:11.288Z,21.2
2017-03-15T13:39:13.162Z,21.3
2017-03-15T13:40:15.031Z,21.4
2017-03-15T13:41:16.898Z,21.4
2017-03-15T13:42:18.757Z,21.4
2017-03-15T13:43:20.628Z,21.3
2017-03-15T13:44:22.497Z,21.3
2017-03-15T13:45:24.382Z,21.3
2017-03-15T13:46:26.278Z,21.3
2017-03-15T13:47:28.146Z,21.2
2017-03-15T13:48:30.349Z,21.2
2017-03-15T13:49:32.212Z,21.2
2017-03-15T13:50:34.067Z,21.2
2017-03-15T13:51:35.932Z,21.2
2017-03-15T13:52:37.802Z,21.2
2017-03-15T13:53:39.670Z,21.2